sensor_id;sensor_type;location;lat;lon;timestamp;temperature;humidity
11989;DHT22;6054;50.966;7.094;2024-02-21T00:00:18;17.30;49.00
11989;DHT22;6054;50.966;7.094;2024-02-21T00:02:47;17.00;49.90
11989;DHT22;6054;50.966;7.094;2024-02-21T00:05:21;17.50;50.40
11989;DHT22;6054;50.966;7.094;2024-02-21T00:07:51;17.20;50.10
11989;DHT22;6054;50.966;7.094;2024-02-21T00:10:19;17.20;48.90
11989;DHT22;6054;50.966;7.094;2024-02-21T00:13:08;17.20;47.30
11989;DHT22;6054;50.966;7.094;2024-02-21T00:15:54;17.20;49.10
11989;DHT22;6054;50.966;7.094;2024-02-21T00:18:23;17.30;46.50
11989;DHT22;6054;50.966;7.094;2024-02-21T00:20:59;17.30;48.00
11989;DHT22;6054;50.966;7.094;2024-02-21T00:23:27;17.10;48.40
11989;DHT22;6054;50.966;7.094;2024-02-21T00:25:54;17.20;46.50
11989;DHT22;6054;50.966;7.094;2024-02-21T04:18:08;16.60;52.10
11989;DHT22;6054;50.966;7.094;2024-02-21T04:20:43;16.80;49.70
11989;DHT22;6054;50.966;7.094;2024-02-21T04:23:15;16.80;50.90
11989;DHT22;6054;50.966;7.094;2024-02-21T04:25:46;16.80;50.40
11989;DHT22;6054;50.966;7.094;2024-02-21T04:28:14;16.60;47.70
11989;DHT22;6054;50.966;7.094;2024-02-21T04:30:44;16.60;50.30
11989;DHT22;6054;50.966;7.094;2024-02-21T04:33:21;16.90;50.30
11989;DHT22;6054;50.966;7.094;2024-02-21T04:35:50;16.60;49.00
11989;DHT22;6054;50.966;7.094;2024-02-21T04:38:20;16.70;46.90
11989;DHT22;6054;50.966;7.094;2024-02-21T04:41:02;16.60;47.80
11989;DHT22;6054;50.966;7.094;2024-02-21T04:43:41;16.70;47.30
11989;DHT22;6054;50.966;7.094;2024-02-21T04:46:19;16.60;51.90
11989;DHT22;6054;50.966;7.094;2024-02-21T04:48:52;16.70;48.60
11989;DHT22;6054;50.966;7.094;2024-02-21T04:51:23;16.90;50.60
11989;DHT22;6054;50.966;7.094;2024-02-21T04:54:04;16.60;48.60
11989;DHT22;6054;50.966;7.094;2024-02-21T04:56:54;16.90;49.30
11989;DHT22;6054;50.966;7.094;2024-02-21T04:59:45;16.90;51.40
11989;DHT22;6054;50.966;7.094;2024-02-21T05:02:26;16.40;51.50
11989;DHT22;6054;50.966;7.094;2024-02-21T05:05:10;16.60;49.70
11989;DHT22;6054;50.966;7.094;2024-02-21T05:08:03;16.90;47.00
11989;DHT22;6054;50.966;7.094;2024-02-21T05:10:39;16.70;48.80
11989;DHT22;6054;50.966;7.094;2024-02-21T05:13:15;16.60;46.40
11989;DHT22;6054;50.966;7.094;2024-02-21T05:15:43;16.50;47.60
11989;DHT22;6054;50.966;7.094;2024-02-21T05:18:10;16.70;47.50
11989;DHT22;6054;50.966;7.094;2024-02-21T05:20:38;16.60;49.00
11989;DHT22;6054;50.966;7.094;2024-02-21T05:23:07;16.90;48.20
11989;DHT22;6054;50.966;7.094;2024-02-21T05:25:37;16.70;49.30
11989;DHT22;6054;50.966;7.094;2024-02-21T05:28:04;16.50;48.10
11989;DHT22;6054;50.966;7.094;2024-02-21T05:30:35;16.70;47.50
11989;DHT22;6054;50.966;7.094;2024-02-21T05:33:04;16.90;49.80
11989;DHT22;6054;50.966;7.094;2024-02-21T05:35:39;16.80;50.00
11989;DHT22;6054;50.966;7.094;2024-02-21T05:38:09;16.70;49.10
11989;DHT22;6054;50.966;7.094;2024-02-21T05:40:48;16.70;51.70
11989;DHT22;6054;50.966;7.094;2024-02-21T05:43:26;16.60;48.50
11989;DHT22;6054;50.966;7.094;2024-02-21T05:45:56;16.40;49.00
11989;DHT22;6054;50.966;7.094;2024-02-21T05:48:29;16.70;49.80
11989;DHT22;6054;50.966;7.094;2024-02-21T05:51:02;16.70;49.30
11989;DHT22;6054;50.966;7.094;2024-02-21T05:53:50;16.70;50.40
11989;DHT22;6054;50.966;7.094;2024-02-21T05:56:26;16.90;49.50
11989;DHT22;6054;50.966;7.094;2024-02-21T05:58:55;16.70;47.90
11989;DHT22;6054;50.966;7.094;2024-02-21T06:01:24;16.70;46.90
11989;DHT22;6054;50.966;7.094;2024-02-21T06:04:01;16.60;47.20
11989;DHT22;6054;50.966;7.094;2024-02-21T06:06:35;16.70;47.80
11989;DHT22;6054;50.966;7.094;2024-02-21T06:09:04;16.70;48.80
11989;DHT22;6054;50.966;7.094;2024-02-21T06:12:18;17.00;48.60
11989;DHT22;6054;50.966;7.094;2024-02-21T06:14:51;16.70;51.40
11989;DHT22;6054;50.966;7.094;2024-02-21T06:17:35;16.70;49.90
11989;DHT22;6054;50.966;7.094;2024-02-21T06:20:06;16.90;49.70
11989;DHT22;6054;50.966;7.094;2024-02-21T06:22:34;16.70;49.10
11989;DHT22;6054;50.966;7.094;2024-02-21T06:25:02;16.70;49.40
11989;DHT22;6054;50.966;7.094;2024-02-21T06:27:44;17.00;47.50
11989;DHT22;6054;50.966;7.094;2024-02-21T06:30:13;16.60;49.80
11989;DHT22;6054;50.966;7.094;2024-02-21T06:32:41;16.70;50.80
11989;DHT22;6054;50.966;7.094;2024-02-21T06:35:09;16.80;47.50
11989;DHT22;6054;50.966;7.094;2024-02-21T06:37:37;16.70;49.10
11989;DHT22;6054;50.966;7.094;2024-02-21T06:40:07;16.70;48.60
11989;DHT22;6054;50.966;7.094;2024-02-21T06:42:42;16.80;48.80
11989;DHT22;6054;50.966;7.094;2024-02-21T06:45:11;16.80;47.70
11989;DHT22;6054;50.966;7.094;2024-02-21T06:47:48;16.80;49.60
11989;DHT22;6054;50.966;7.094;2024-02-21T06:50:18;16.70;48.70
11989;DHT22;6054;50.966;7.094;2024-02-21T06:52:48;16.70;48.90
11989;DHT22;6054;50.966;7.094;2024-02-21T06:55:17;16.70;47.90
11989;DHT22;6054;50.966;7.094;2024-02-21T06:57:47;16.70;48.90
11989;DHT22;6054;50.966;7.094;2024-02-21T07:00:19;16.80;48.10
11989;DHT22;6054;50.966;7.094;2024-02-21T07:02:48;16.70;49.20
11989;DHT22;6054;50.966;7.094;2024-02-21T07:05:27;16.60;47.60
11989;DHT22;6054;50.966;7.094;2024-02-21T07:08:02;16.70;51.70
11989;DHT22;6054;50.966;7.094;2024-02-21T07:10:31;16.90;48.90
11989;DHT22;6054;50.966;7.094;2024-02-21T07:12:58;17.00;48.70
11989;DHT22;6054;50.966;7.094;2024-02-21T07:15:25;16.60;48.80
11989;DHT22;6054;50.966;7.094;2024-02-21T07:17:54;16.90;47.70
11989;DHT22;6054;50.966;7.094;2024-02-21T07:20:40;16.90;47.70
11989;DHT22;6054;50.966;7.094;2024-02-21T07:23:16;16.70;48.00
11989;DHT22;6054;50.966;7.094;2024-02-21T07:25:54;16.70;49.50
11989;DHT22;6054;50.966;7.094;2024-02-21T07:28:24;16.70;49.00
11989;DHT22;6054;50.966;7.094;2024-02-21T07:31:01;16.70;47.80
11989;DHT22;6054;50.966;7.094;2024-02-21T07:33:31;16.90;49.70
11989;DHT22;6054;50.966;7.094;2024-02-21T07:35:58;16.60;49.10
11989;DHT22;6054;50.966;7.094;2024-02-21T07:38:29;16.60;48.50
11989;DHT22;6054;50.966;7.094;2024-02-21T07:40:59;17.00;48.30
11989;DHT22;6054;50.966;7.094;2024-02-21T07:43:27;16.40;48.80
11989;DHT22;6054;50.966;7.094;2024-02-21T07:46:05;16.60;46.70
11989;DHT22;6054;50.966;7.094;2024-02-21T07:49:17;16.60;45.80
11989;DHT22;6054;50.966;7.094;2024-02-21T07:51:41;16.70;49.40
11989;DHT22;6054;50.966;7.094;2024-02-21T07:54:33;16.80;48.80
11989;DHT22;6054;50.966;7.094;2024-02-21T07:57:02;16.90;49.40
11989;DHT22;6054;50.966;7.094;2024-02-21T07:59:36;16.70;48.50
11989;DHT22;6054;50.966;7.094;2024-02-21T08:02:06;16.90;50.10
11989;DHT22;6054;50.966;7.094;2024-02-21T08:04:45;16.60;47.50
11989;DHT22;6054;50.966;7.094;2024-02-21T08:19:49;16.50;50.00
11989;DHT22;6054;50.966;7.094;2024-02-21T08:22:20;16.60;50.50
11989;DHT22;6054;50.966;7.094;2024-02-21T08:24:47;16.70;48.40
11989;DHT22;6054;50.966;7.094;2024-02-21T08:27:17;16.40;47.50
11989;DHT22;6054;50.966;7.094;2024-02-21T08:29:44;16.40;49.60
11989;DHT22;6054;50.966;7.094;2024-02-21T08:32:13;16.40;49.70
11989;DHT22;6054;50.966;7.094;2024-02-21T08:37:54;16.40;49.40
11989;DHT22;6054;50.966;7.094;2024-02-21T08:40:32;16.70;48.00
11989;DHT22;6054;50.966;7.094;2024-02-21T08:43:18;16.50;47.70
11989;DHT22;6054;50.966;7.094;2024-02-21T08:45:49;16.50;50.70
11989;DHT22;6054;50.966;7.094;2024-02-21T08:48:25;16.80;50.00
11989;DHT22;6054;50.966;7.094;2024-02-21T08:50:55;16.60;49.00
11989;DHT22;6054;50.966;7.094;2024-02-21T08:53:26;16.50;48.30
11989;DHT22;6054;50.966;7.094;2024-02-21T08:55:56;16.60;50.70
11989;DHT22;6054;50.966;7.094;2024-02-21T08:58:26;16.50;48.10
11989;DHT22;6054;50.966;7.094;2024-02-21T09:00:56;16.80;49.20
11989;DHT22;6054;50.966;7.094;2024-02-21T09:03:25;16.60;49.10
11989;DHT22;6054;50.966;7.094;2024-02-21T09:06:04;17.00;49.60
11989;DHT22;6054;50.966;7.094;2024-02-21T09:08:58;16.60;49.40
11989;DHT22;6054;50.966;7.094;2024-02-21T09:11:31;16.60;48.10
11989;DHT22;6054;50.966;7.094;2024-02-21T09:14:04;16.60;47.40
11989;DHT22;6054;50.966;7.094;2024-02-21T09:16:43;16.60;47.50
11989;DHT22;6054;50.966;7.094;2024-02-21T09:19:11;16.70;49.90
11989;DHT22;6054;50.966;7.094;2024-02-21T09:21:39;16.70;49.00
11989;DHT22;6054;50.966;7.094;2024-02-21T09:24:17;16.80;50.40
11989;DHT22;6054;50.966;7.094;2024-02-21T09:26:45;17.00;49.20
11989;DHT22;6054;50.966;7.094;2024-02-21T09:29:13;16.90;48.10
11989;DHT22;6054;50.966;7.094;2024-02-21T09:31:43;16.90;47.30
11989;DHT22;6054;50.966;7.094;2024-02-21T09:34:11;16.80;46.50
11989;DHT22;6054;50.966;7.094;2024-02-21T09:36:43;16.90;47.90
11989;DHT22;6054;50.966;7.094;2024-02-21T09:39:11;16.90;48.10
11989;DHT22;6054;50.966;7.094;2024-02-21T09:41:50;17.10;47.70
11989;DHT22;6054;50.966;7.094;2024-02-21T09:44:25;17.20;48.60
11989;DHT22;6054;50.966;7.094;2024-02-21T09:47:02;17.30;48.40
11989;DHT22;6054;50.966;7.094;2024-02-21T09:49:33;17.00;48.80
11989;DHT22;6054;50.966;7.094;2024-02-21T09:52:04;17.50;47.60
11989;DHT22;6054;50.966;7.094;2024-02-21T09:54:33;17.20;46.90
11989;DHT22;6054;50.966;7.094;2024-02-21T09:57:03;17.40;46.80
11989;DHT22;6054;50.966;7.094;2024-02-21T09:59:32;17.20;46.00
11989;DHT22;6054;50.966;7.094;2024-02-21T10:01:59;17.20;47.40
11989;DHT22;6054;50.966;7.094;2024-02-21T10:04:29;17.60;46.30
11989;DHT22;6054;50.966;7.094;2024-02-21T10:06:58;17.30;45.10
11989;DHT22;6054;50.966;7.094;2024-02-21T10:09:28;17.40;46.50
11989;DHT22;6054;50.966;7.094;2024-02-21T10:11:56;17.40;45.70
11989;DHT22;6054;50.966;7.094;2024-02-21T10:14:26;17.70;46.80
11989;DHT22;6054;50.966;7.094;2024-02-21T10:17:00;17.60;45.70
11989;DHT22;6054;50.966;7.094;2024-02-21T10:19:43;17.40;47.30
11989;DHT22;6054;50.966;7.094;2024-02-21T10:22:12;17.80;46.60
11989;DHT22;6054;50.966;7.094;2024-02-21T10:24:43;17.60;46.80
11989;DHT22;6054;50.966;7.094;2024-02-21T10:27:12;17.60;46.70
11989;DHT22;6054;50.966;7.094;2024-02-21T10:29:42;17.60;46.40
11989;DHT22;6054;50.966;7.094;2024-02-21T10:32:19;17.60;46.80
11989;DHT22;6054;50.966;7.094;2024-02-21T10:35:01;17.70;47.10
11989;DHT22;6054;50.966;7.094;2024-02-21T10:37:32;17.70;47.00
11989;DHT22;6054;50.966;7.094;2024-02-21T10:40:00;17.80;46.80
11989;DHT22;6054;50.966;7.094;2024-02-21T10:42:31;17.80;47.50
11989;DHT22;6054;50.966;7.094;2024-02-21T10:45:07;17.90;46.60
11989;DHT22;6054;50.966;7.094;2024-02-21T10:47:37;17.90;46.30
11989;DHT22;6054;50.966;7.094;2024-02-21T10:50:08;17.90;46.40
11989;DHT22;6054;50.966;7.094;2024-02-21T10:52:47;18.00;46.30
11989;DHT22;6054;50.966;7.094;2024-02-21T10:55:21;18.00;45.40
11989;DHT22;6054;50.966;7.094;2024-02-21T10:57:53;18.40;44.50
11989;DHT22;6054;50.966;7.094;2024-02-21T11:00:26;18.10;44.40
11989;DHT22;6054;50.966;7.094;2024-02-21T11:02:56;18.30;44.40
11989;DHT22;6054;50.966;7.094;2024-02-21T11:05:24;18.20;45.00
11989;DHT22;6054;50.966;7.094;2024-02-21T11:07:59;18.20;44.70
11989;DHT22;6054;50.966;7.094;2024-02-21T11:10:27;18.20;44.10
11989;DHT22;6054;50.966;7.094;2024-02-21T11:13:06;18.30;41.10
11989;DHT22;6054;50.966;7.094;2024-02-21T11:15:41;18.50;45.70
11989;DHT22;6054;50.966;7.094;2024-02-21T11:18:23;18.60;43.20
11989;DHT22;6054;50.966;7.094;2024-02-21T11:20:51;18.30;43.90
11989;DHT22;6054;50.966;7.094;2024-02-21T11:23:25;18.40;43.80
11989;DHT22;6054;50.966;7.094;2024-02-21T11:25:52;18.40;44.60
11989;DHT22;6054;50.966;7.094;2024-02-21T11:28:29;18.70;41.90
11989;DHT22;6054;50.966;7.094;2024-02-21T11:31:16;18.50;43.40
11989;DHT22;6054;50.966;7.094;2024-02-21T11:33:49;18.50;42.50
11989;DHT22;6054;50.966;7.094;2024-02-21T11:36:25;18.50;44.60
11989;DHT22;6054;50.966;7.094;2024-02-21T11:38:52;18.70;43.10
11989;DHT22;6054;50.966;7.094;2024-02-21T11:41:21;18.40;42.80
11989;DHT22;6054;50.966;7.094;2024-02-21T11:43:49;18.50;41.70
11989;DHT22;6054;50.966;7.094;2024-02-21T11:46:21;18.50;43.10
11989;DHT22;6054;50.966;7.094;2024-02-21T11:48:51;18.60;41.10
11989;DHT22;6054;50.966;7.094;2024-02-21T11:51:21;18.40;42.40
11989;DHT22;6054;50.966;7.094;2024-02-21T11:53:50;18.50;41.70
11989;DHT22;6054;50.966;7.094;2024-02-21T11:56:18;18.80;44.50
11989;DHT22;6054;50.966;7.094;2024-02-21T11:58:45;18.70;41.90
11989;DHT22;6054;50.966;7.094;2024-02-21T12:01:16;18.80;42.60
11989;DHT22;6054;50.966;7.094;2024-02-21T12:03:47;18.60;41.90
11989;DHT22;6054;50.966;7.094;2024-02-21T12:06:18;18.80;43.80
11989;DHT22;6054;50.966;7.094;2024-02-21T12:08:52;18.80;39.20
11989;DHT22;6054;50.966;7.094;2024-02-21T12:11:24;18.60;43.90
11989;DHT22;6054;50.966;7.094;2024-02-21T12:14:01;18.60;41.50
11989;DHT22;6054;50.966;7.094;2024-02-21T12:16:30;18.60;44.00
11989;DHT22;6054;50.966;7.094;2024-02-21T12:19:01;18.60;43.40
11989;DHT22;6054;50.966;7.094;2024-02-21T12:21:33;18.60;43.10
11989;DHT22;6054;50.966;7.094;2024-02-21T12:24:13;18.70;43.40
11989;DHT22;6054;50.966;7.094;2024-02-21T12:26:41;18.70;43.90
11989;DHT22;6054;50.966;7.094;2024-02-21T12:29:13;18.60;43.00
11989;DHT22;6054;50.966;7.094;2024-02-21T12:31:42;18.60;43.80
11989;DHT22;6054;50.966;7.094;2024-02-21T12:34:11;18.60;43.00
11989;DHT22;6054;50.966;7.094;2024-02-21T12:36:41;18.60;43.60
11989;DHT22;6054;50.966;7.094;2024-02-21T12:39:14;18.80;43.80
11989;DHT22;6054;50.966;7.094;2024-02-21T12:41:42;18.60;43.40
11989;DHT22;6054;50.966;7.094;2024-02-21T12:44:10;18.60;43.50
11989;DHT22;6054;50.966;7.094;2024-02-21T12:46:38;18.60;43.40
11989;DHT22;6054;50.966;7.094;2024-02-21T12:49:10;18.70;43.70
11989;DHT22;6054;50.966;7.094;2024-02-21T12:51:38;18.80;43.90
11989;DHT22;6054;50.966;7.094;2024-02-21T12:54:08;18.80;43.10
11989;DHT22;6054;50.966;7.094;2024-02-21T12:56:39;18.90;43.50
11989;DHT22;6054;50.966;7.094;2024-02-21T12:59:17;18.90;42.80
11989;DHT22;6054;50.966;7.094;2024-02-21T13:01:45;19.00;42.70
11989;DHT22;6054;50.966;7.094;2024-02-21T13:04:20;19.00;43.00
11989;DHT22;6054;50.966;7.094;2024-02-21T13:06:51;19.00;40.20
11989;DHT22;6054;50.966;7.094;2024-02-21T13:09:23;19.10;40.60
11989;DHT22;6054;50.966;7.094;2024-02-21T13:11:53;18.80;42.40
11989;DHT22;6054;50.966;7.094;2024-02-21T13:14:20;19.00;41.80
11989;DHT22;6054;50.966;7.094;2024-02-21T13:16:58;19.00;41.50
11989;DHT22;6054;50.966;7.094;2024-02-21T13:19:36;19.10;41.60
11989;DHT22;6054;50.966;7.094;2024-02-21T13:22:03;19.30;41.10
11989;DHT22;6054;50.966;7.094;2024-02-21T13:24:34;19.20;41.80
11989;DHT22;6054;50.966;7.094;2024-02-21T13:27:02;19.20;41.90
11989;DHT22;6054;50.966;7.094;2024-02-21T13:29:30;19.50;40.70
11989;DHT22;6054;50.966;7.094;2024-02-21T13:32:08;19.40;41.50
11989;DHT22;6054;50.966;7.094;2024-02-21T13:35:10;19.30;41.70
11989;DHT22;6054;50.966;7.094;2024-02-21T13:37:38;19.40;42.50
11989;DHT22;6054;50.966;7.094;2024-02-21T13:40:08;19.70;41.90
11989;DHT22;6054;50.966;7.094;2024-02-21T13:42:36;19.50;39.80
11989;DHT22;6054;50.966;7.094;2024-02-21T13:45:09;19.50;40.50
11989;DHT22;6054;50.966;7.094;2024-02-21T13:48:04;19.50;41.40
11989;DHT22;6054;50.966;7.094;2024-02-21T13:51:05;19.60;42.40
11989;DHT22;6054;50.966;7.094;2024-02-21T13:54:54;19.60;42.90
11989;DHT22;6054;50.966;7.094;2024-02-21T13:57:31;20.00;41.80
11989;DHT22;6054;50.966;7.094;2024-02-21T14:00:03;19.90;42.50
11989;DHT22;6054;50.966;7.094;2024-02-21T14:02:56;19.70;39.50
11989;DHT22;6054;50.966;7.094;2024-02-21T14:05:35;19.60;39.80
11989;DHT22;6054;50.966;7.094;2024-02-21T14:08:19;19.70;41.30
11989;DHT22;6054;50.966;7.094;2024-02-21T14:11:01;19.80;41.20
11989;DHT22;6054;50.966;7.094;2024-02-21T14:13:31;19.50;42.30
11989;DHT22;6054;50.966;7.094;2024-02-21T14:16:09;19.80;40.90
11989;DHT22;6054;50.966;7.094;2024-02-21T14:18:42;19.50;40.50
11989;DHT22;6054;50.966;7.094;2024-02-21T14:21:15;19.70;42.00
11989;DHT22;6054;50.966;7.094;2024-02-21T14:24:03;19.50;42.30
11989;DHT22;6054;50.966;7.094;2024-02-21T14:27:09;19.50;38.40
11989;DHT22;6054;50.966;7.094;2024-02-21T14:29:42;19.70;40.00
11989;DHT22;6054;50.966;7.094;2024-02-21T14:32:13;19.60;40.90
11989;DHT22;6054;50.966;7.094;2024-02-21T14:34:40;19.50;41.70
11989;DHT22;6054;50.966;7.094;2024-02-21T14:37:07;19.50;41.30
11989;DHT22;6054;50.966;7.094;2024-02-21T14:39:41;19.50;41.60
11989;DHT22;6054;50.966;7.094;2024-02-21T14:42:13;19.40;41.30
11989;DHT22;6054;50.966;7.094;2024-02-21T14:44:40;19.40;41.50
11989;DHT22;6054;50.966;7.094;2024-02-21T14:47:08;19.60;41.40
11989;DHT22;6054;50.966;7.094;2024-02-21T14:49:36;19.40;41.60
11989;DHT22;6054;50.966;7.094;2024-02-21T14:52:03;19.40;40.90
11989;DHT22;6054;50.966;7.094;2024-02-21T14:54:30;19.40;41.60
11989;DHT22;6054;50.966;7.094;2024-02-21T14:57:13;19.40;41.50
11989;DHT22;6054;50.966;7.094;2024-02-21T14:59:46;19.70;40.50
11989;DHT22;6054;50.966;7.094;2024-02-21T15:02:24;19.70;41.30
11989;DHT22;6054;50.966;7.094;2024-02-21T15:04:55;19.50;38.20
11989;DHT22;6054;50.966;7.094;2024-02-21T15:07:22;19.70;38.40
11989;DHT22;6054;50.966;7.094;2024-02-21T15:09:52;19.40;40.60
11989;DHT22;6054;50.966;7.094;2024-02-21T15:12:24;19.40;40.80
11989;DHT22;6054;50.966;7.094;2024-02-21T15:14:59;19.40;37.30
11989;DHT22;6054;50.966;7.094;2024-02-21T15:17:26;19.40;40.00
11989;DHT22;6054;50.966;7.094;2024-02-21T15:20:20;19.60;39.50
11989;DHT22;6054;50.966;7.094;2024-02-21T15:23:16;19.40;41.00
11989;DHT22;6054;50.966;7.094;2024-02-21T15:25:45;19.40;41.90
11989;DHT22;6054;50.966;7.094;2024-02-21T15:28:26;19.60;40.00
11989;DHT22;6054;50.966;7.094;2024-02-21T15:30:55;19.30;39.80
11989;DHT22;6054;50.966;7.094;2024-02-21T15:33:23;19.50;40.70
11989;DHT22;6054;50.966;7.094;2024-02-21T15:35:55;19.40;39.40
11989;DHT22;6054;50.966;7.094;2024-02-21T15:38:22;19.40;40.20
11989;DHT22;6054;50.966;7.094;2024-02-21T15:40:51;19.40;38.50
11989;DHT22;6054;50.966;7.094;2024-02-21T15:43:39;19.60;39.40
11989;DHT22;6054;50.966;7.094;2024-02-21T15:46:25;19.30;39.90
11989;DHT22;6054;50.966;7.094;2024-02-21T15:49:00;19.30;38.60
11989;DHT22;6054;50.966;7.094;2024-02-21T15:54:28;19.60;41.60
11989;DHT22;6054;50.966;7.094;2024-02-21T15:57:12;19.00;40.50
11989;DHT22;6054;50.966;7.094;2024-02-21T16:12:24;19.40;40.70
11989;DHT22;6054;50.966;7.094;2024-02-21T16:15:10;19.20;40.90
11989;DHT22;6054;50.966;7.094;2024-02-21T16:17:51;19.30;40.00
11989;DHT22;6054;50.966;7.094;2024-02-21T16:24:27;19.30;40.10
11989;DHT22;6054;50.966;7.094;2024-02-21T16:27:03;18.90;39.90
11989;DHT22;6054;50.966;7.094;2024-02-21T16:30:05;19.20;39.20
11989;DHT22;6054;50.966;7.094;2024-02-21T16:32:34;19.10;39.20
11989;DHT22;6054;50.966;7.094;2024-02-21T16:35:06;19.10;38.10
11989;DHT22;6054;50.966;7.094;2024-02-21T16:37:37;19.10;39.30
11989;DHT22;6054;50.966;7.094;2024-02-21T16:40:18;19.30;34.10
11989;DHT22;6054;50.966;7.094;2024-02-21T16:42:50;19.00;37.90
11989;DHT22;6054;50.966;7.094;2024-02-21T16:45:43;19.30;37.50
11989;DHT22;6054;50.966;7.094;2024-02-21T16:48:16;18.80;39.40
11989;DHT22;6054;50.966;7.094;2024-02-21T16:50:50;19.20;38.00
11989;DHT22;6054;50.966;7.094;2024-02-21T16:53:22;18.80;36.60
11989;DHT22;6054;50.966;7.094;2024-02-21T16:55:50;18.80;38.80
11989;DHT22;6054;50.966;7.094;2024-02-21T16:58:38;18.80;36.80
11989;DHT22;6054;50.966;7.094;2024-02-21T17:01:24;18.80;38.20
11989;DHT22;6054;50.966;7.094;2024-02-21T17:04:06;19.10;40.10
11989;DHT22;6054;50.966;7.094;2024-02-21T17:06:35;19.10;37.10
11989;DHT22;6054;50.966;7.094;2024-02-21T17:09:03;18.80;40.00
11989;DHT22;6054;50.966;7.094;2024-02-21T17:11:33;18.70;38.50
11989;DHT22;6054;50.966;7.094;2024-02-21T17:17:25;18.80;39.20
11989;DHT22;6054;50.966;7.094;2024-02-21T17:20:08;18.80;38.10
11989;DHT22;6054;50.966;7.094;2024-02-21T17:22:37;18.60;39.40
11989;DHT22;6054;50.966;7.094;2024-02-21T17:25:11;18.70;38.20
11989;DHT22;6054;50.966;7.094;2024-02-21T17:27:38;18.60;40.20
11989;DHT22;6054;50.966;7.094;2024-02-21T17:30:08;18.70;40.40
11989;DHT22;6054;50.966;7.094;2024-02-21T17:32:38;18.60;40.40
11989;DHT22;6054;50.966;7.094;2024-02-21T17:35:06;18.60;40.40
11989;DHT22;6054;50.966;7.094;2024-02-21T17:37:35;18.60;40.40
11989;DHT22;6054;50.966;7.094;2024-02-21T17:40:11;18.70;38.40
11989;DHT22;6054;50.966;7.094;2024-02-21T17:42:40;18.60;37.40
11989;DHT22;6054;50.966;7.094;2024-02-21T17:45:11;18.70;39.90
11989;DHT22;6054;50.966;7.094;2024-02-21T17:47:42;18.60;40.30
11989;DHT22;6054;50.966;7.094;2024-02-21T17:50:22;18.30;37.30
11989;DHT22;6054;50.966;7.094;2024-02-21T17:53:34;18.50;39.40
11989;DHT22;6054;50.966;7.094;2024-02-21T18:03:28;18.10;42.80
11989;DHT22;6054;50.966;7.094;2024-02-21T18:06:09;18.20;44.10
11989;DHT22;6054;50.966;7.094;2024-02-21T18:08:59;18.20;42.80
11989;DHT22;6054;50.966;7.094;2024-02-21T18:11:42;18.20;41.60
11989;DHT22;6054;50.966;7.094;2024-02-21T18:18:24;18.10;45.90
11989;DHT22;6054;50.966;7.094;2024-02-21T18:54:12;16.90;50.70
11989;DHT22;6054;50.966;7.094;2024-02-21T19:00:51;16.60;51.10
11989;DHT22;6054;50.966;7.094;2024-02-21T19:03:35;17.00;50.60
11989;DHT22;6054;50.966;7.094;2024-02-21T19:06:36;16.70;52.00
11989;DHT22;6054;50.966;7.094;2024-02-21T19:09:38;16.60;49.00
11989;DHT22;6054;50.966;7.094;2024-02-21T19:12:20;16.60;52.50
11989;DHT22;6054;50.966;7.094;2024-02-21T19:14:58;16.50;49.80
11989;DHT22;6054;50.966;7.094;2024-02-21T19:17:57;16.70;51.90
11989;DHT22;6054;50.966;7.094;2024-02-21T19:20:38;16.50;53.40
11989;DHT22;6054;50.966;7.094;2024-02-21T19:24:08;16.40;48.90
11989;DHT22;6054;50.966;7.094;2024-02-21T19:30:39;16.60;53.30
11989;DHT22;6054;50.966;7.094;2024-02-21T19:33:25;16.10;53.90
11989;DHT22;6054;50.966;7.094;2024-02-21T20:03:54;16.10;55.20
11989;DHT22;6054;50.966;7.094;2024-02-21T20:06:57;16.30;56.10
11989;DHT22;6054;50.966;7.094;2024-02-21T20:12:33;16.30;56.30
11989;DHT22;6054;50.966;7.094;2024-02-21T20:15:07;16.20;55.00
11989;DHT22;6054;50.966;7.094;2024-02-21T20:17:43;16.20;55.50
11989;DHT22;6054;50.966;7.094;2024-02-21T20:20:46;16.20;52.20
11989;DHT22;6054;50.966;7.094;2024-02-21T20:23:26;16.20;56.60
11989;DHT22;6054;50.966;7.094;2024-02-21T20:26:34;16.30;57.00
11989;DHT22;6054;50.966;7.094;2024-02-21T20:33:21;16.30;56.80
11989;DHT22;6054;50.966;7.094;2024-02-21T20:38:41;16.20;57.40
11989;DHT22;6054;50.966;7.094;2024-02-21T20:38:57;16.20;56.10
11989;DHT22;6054;50.966;7.094;2024-02-21T20:41:41;16.20;57.40
11989;DHT22;6054;50.966;7.094;2024-02-21T20:47:36;16.10;58.30
11989;DHT22;6054;50.966;7.094;2024-02-21T20:50:30;16.20;54.60
11989;DHT22;6054;50.966;7.094;2024-02-21T20:53:08;16.20;56.20
11989;DHT22;6054;50.966;7.094;2024-02-21T20:55:52;16.20;53.50
11989;DHT22;6054;50.966;7.094;2024-02-21T20:58:31;15.90;54.70
11989;DHT22;6054;50.966;7.094;2024-02-21T21:01:25;16.20;56.90
11989;DHT22;6054;50.966;7.094;2024-02-21T21:03:56;16.50;55.80
11989;DHT22;6054;50.966;7.094;2024-02-21T21:06:37;16.40;57.60
11989;DHT22;6054;50.966;7.094;2024-02-21T21:09:09;16.40;57.80
11989;DHT22;6054;50.966;7.094;2024-02-21T21:11:47;16.40;56.10
11989;DHT22;6054;50.966;7.094;2024-02-21T21:14:14;16.00;58.70
11989;DHT22;6054;50.966;7.094;2024-02-21T21:16:45;16.10;55.60
11989;DHT22;6054;50.966;7.094;2024-02-21T21:19:26;16.10;55.70
11989;DHT22;6054;50.966;7.094;2024-02-21T21:21:56;16.30;56.20
11989;DHT22;6054;50.966;7.094;2024-02-21T21:24:50;16.10;57.10
11989;DHT22;6054;50.966;7.094;2024-02-21T21:27:25;16.10;58.00
11989;DHT22;6054;50.966;7.094;2024-02-21T21:29:56;16.10;57.20
11989;DHT22;6054;50.966;7.094;2024-02-21T21:32:37;16.00;56.00
11989;DHT22;6054;50.966;7.094;2024-02-21T21:38:14;16.10;58.00
11989;DHT22;6054;50.966;7.094;2024-02-21T21:40:49;16.00;56.90
11989;DHT22;6054;50.966;7.094;2024-02-21T21:43:19;16.00;58.80
11989;DHT22;6054;50.966;7.094;2024-02-21T21:45:59;16.10;56.20
11989;DHT22;6054;50.966;7.094;2024-02-21T21:48:27;16.40;56.80
11989;DHT22;6054;50.966;7.094;2024-02-21T21:50:54;16.30;56.80
11989;DHT22;6054;50.966;7.094;2024-02-21T21:53:27;16.00;57.00
11989;DHT22;6054;50.966;7.094;2024-02-21T21:56:16;16.30;57.20
11989;DHT22;6054;50.966;7.094;2024-02-21T21:58:47;16.00;59.00
11989;DHT22;6054;50.966;7.094;2024-02-21T22:01:15;16.00;57.20
11989;DHT22;6054;50.966;7.094;2024-02-21T22:04:13;16.10;57.30
11989;DHT22;6054;50.966;7.094;2024-02-21T22:07:12;16.00;59.00
11989;DHT22;6054;50.966;7.094;2024-02-21T22:09:58;16.00;58.80
11989;DHT22;6054;50.966;7.094;2024-02-21T22:12:29;15.90;58.00
11989;DHT22;6054;50.966;7.094;2024-02-21T22:14:57;16.20;56.70
11989;DHT22;6054;50.966;7.094;2024-02-21T22:20:14;15.70;59.20
11989;DHT22;6054;50.966;7.094;2024-02-21T22:23:01;15.90;57.50
11989;DHT22;6054;50.966;7.094;2024-02-21T22:25:40;16.20;59.70
11989;DHT22;6054;50.966;7.094;2024-02-21T22:28:41;16.00;59.10
11989;DHT22;6054;50.966;7.094;2024-02-21T22:31:26;15.90;59.80
11989;DHT22;6054;50.966;7.094;2024-02-21T22:42:14;15.90;59.90
11989;DHT22;6054;50.966;7.094;2024-02-21T22:47:40;15.90;59.90
11989;DHT22;6054;50.966;7.094;2024-02-21T22:50:18;15.90;58.00
11989;DHT22;6054;50.966;7.094;2024-02-21T22:53:14;15.90;56.40